LSGS 210250Z AUTO 00000KT 9999 BKN070 12/11 Q1023 LSGS 210220Z AUTO VRB01KT 9999 OVC075 12/11 Q1023 LSGS 210150Z AUTO 00000KT 9999 OVC070 12/11 Q1023 LSGS 210120Z AUTO VRB01KT 9999 SCT060 OVC070 12/11 Q1023 LSGS 210050Z AUTO VRB02KT 9999 BKN060 BKN075 12/11 Q1023 LSGS 210020Z AUTO VRB01KT 9999 FEW065 BKN075 12/11 Q1023 LSGS 202350Z AUTO 00000KT 9999 OVC065 12/11 Q1023 LSGS 202320Z AUTO 00000KT 9999 BKN065 12/11 Q1023 LSGS 202250Z AUTO 00000KT 9999 FEW065 12/11 Q1023 LSGS 202220Z AUTO 00000KT 9999 OVC065 12/11 Q1023 LSGS 202150Z AUTO 08002KT 9999 BKN065 BKN080 12/12 Q1022 LSGS 202120Z AUTO 07002KT 9999 FEW065 BKN080 12/12 Q1022 LSGS 202050Z AUTO 00000KT 9999 BKN065 12/12 Q1022 LSGS 202020Z AUTO 00000KT 9999 SCT065 12/12 Q1022 LSGS 201950Z AUTO 00000KT 9999 SCT055 BKN065 12/11 Q1022 LSGS 201920Z AUTO 00000KT 9999 OVC055 12/11 Q1021 LSGS 201850Z AUTO 12001KT 9999 BKN065 12/12 Q1021 LSGS 201820Z AUTO VRB01KT 9999 BKN060 12/12 Q1021 LSGS 201750Z 00000KT 9999 -RA FEW020 SCT030 BKN080 12/11 Q1021 LSGS 201720Z VRB02KT 9999 -RA FEW020 SCT030 BKN080 13/11 Q1020 LSGS 201650Z VRB02KT 9999 -RA FEW010 SCT020 BKN070 13/11 Q1020 LSGS 201620Z VRB02KT 9999 -RA FEW010 SCT020 BKN070 13/11 Q1020 LSGS 201550Z VRB02KT 9999 -RA FEW010 SCT020 BKN070 13/11 Q1020 LSGS 201520Z 27003KT 230V290 9999 -RA FEW010 SCT020 BKN070 13/11 Q1019 LSGS 201450Z 23003KT 9999 -RA FEW010 SCT020 BKN070 13/11 Q1019 LSGS 201420Z 24003KT 210V270 9999 -RA FEW010 SCT020 BKN070 13/11 Q1019 LSGS 201350Z 24003KT 200V270 9999 -RA FEW010 SCT020 BKN070 13/11 Q1019 LSGS 201320Z 25004KT 9999 -RA FEW010 SCT020 BKN070 13/11 Q1019 LSGS 201250Z 23003KT 9999 -RA FEW010 SCT020 BKN070 13/11 Q1019 LSGS 201220Z VRB01KT 9999 -RA FEW010 SCT020 BKN070 13/11 Q1019 LSGS 201150Z 00000KT 9999 -RA FEW010 SCT020 BKN070 13/11 Q1019 LSGS 201120Z VRB01KT 9999 -RA FEW010 SCT020 BKN070 13/11 Q1019 LSGS 201050Z VRB01KT 9999 -RA FEW010 SCT020 BKN070 13/11 Q1019 LSGS 201020Z VRB01KT 9999 -RA FEW010 SCT020 BKN070 13/10 Q1019 LSGS 200950Z 00000KT 9999 -RA FEW010 SCT020 BKN070 13/11 Q1019 LSGS 200920Z 09003KT 9999 -RA FEW010 SCT020 BKN070 12/10 Q1019 LSGS 200850Z VRB02KT 9999 -RA FEW010 SCT020 BKN070 12/10 Q1019 LSGS 200820Z VRB03KT 9999 -RA FEW010 SCT020 BKN070 12/10 Q1019 LSGS 200750Z 07004KT 9999 -RA FEW010 SCT020 BKN070 11/10 Q1019 LSGS 200720Z 07005KT 9999 RA FEW010 SCT020 BKN070 11/10 Q1019 LSGS 200650Z VRB02KT 9999 RA FEW010 SCT020 BKN080 11/10 Q1018 LSGS 200620Z VRB01KT 9999 RA FEW010 SCT020 BKN080 11/10 Q1019 LSGS 200550Z 08001KT 9999 -RA SCT020 BKN080 11/10 Q1019 LSGS 200520Z 14001KT 9999 -RA FEW020 BKN080 11/10 Q1019 LSGS 200450Z 00000KT 9999 -RA FEW020 BKN080 11/09 Q1019 LSGS 200420Z AUTO 00000KT 9999 -RA BKN/// 11/09 Q1019 LSGS 200350Z AUTO VRB01KT 9999 -RA OVC031 11/09 Q1019 LSGS 200320Z AUTO VRB01KT 9999 BKN031 11/08 Q1019 LSGS 200250Z AUTO 00000KT 9999 FEW027 11/08 Q1018 LSGS 200220Z AUTO 00000KT 9999 NCD 11/08 Q1018 LSGS 200150Z AUTO 08003KT 9999 FEW027 SCT110 11/08 Q1018 LSGS 200120Z AUTO 09005KT 9999 SCT025 11/08 Q1018 LSGS 200050Z AUTO 08006KT 9999 BKN019 BKN023 11/08 Q1018 LSGS 200020Z AUTO 08004KT 9999 BKN024 11/08 Q1019 LSGS 192350Z AUTO 07004KT 9999 SCT020 11/08 Q1018 LSGS 192320Z AUTO 07004KT 9999 SCT022 11/08 Q1018 LSGS 192250Z AUTO 08005KT 9999 BKN022 11/08 Q1018 LSGS 192220Z AUTO 06004KT 9999 BKN022 11/08 Q1018 LSGS 192150Z AUTO 07005KT 9999 BKN022 11/08 Q1018 LSGS 192120Z AUTO 06003KT 9999 NCD 11/09 Q1018 LSGS 192050Z AUTO 09004KT 9999 SCT024 BKN080 11/08 Q1018 LSGS 192020Z AUTO 09003KT 9999 OVC019 11/08 Q1018 LSGS 191950Z AUTO VRB02KT 9999 FEW023 11/08 Q1018 LSGS 191920Z AUTO 08002KT 9999 FEW025 11/07 Q1018 LSGS 191850Z AUTO 08003KT 9999 BKN024 11/07 Q1018 LSGS 191820Z AUTO 00000KT 9999 BKN024 11/07 Q1017 LSGS 191750Z 08003KT 9999 SCT030 SCT060 BKN100 11/07 Q1017 LSGS 191720Z 08004KT 9999 FEW020 SCT060 BKN100 11/07 Q1017 LSGS 191650Z 08006KT 9999 FEW020 SCT060 BKN090 11/07 Q1017 LSGS 191620Z 06007KT 9999 FEW020 SCT060 BKN080 11/07 Q1017 LSGS 191550Z 05008KT 9999 FEW020 SCT060 BKN080 11/06 Q1017 LSGS 191520Z 07008KT 030V100 9999 FEW020 SCT050 BKN080 11/07 Q1017

METAR Messwerte

Zurück zur Übersicht

Ort
m ü. NN
Zeit Temperatur Taupunkt Rel.
Luftfeuchte
Luftdruck:
Altimeter
NN
Station
Wind in Beaufort
(Knoten)
Sichtweite
(Meter)
Wolken
(Meter über Grund)
Wettererscheinung
Sion
481
Di 21.09. 04:50121194 %1023
1024
966
Windstill>= 10000Stark bewölkt (2100) 
Sion
481
Di 21.09. 04:20121194 %1023
1024
966
Uml 1 (1)>= 10000Bedeckt (2300) 
Sion
481
Di 21.09. 03:50121194 %1023
1024
966
Windstill>= 10000Bedeckt (2100) 
Sion
481
Di 21.09. 03:20121194 %1023
1024
966
Uml 1 (1)>= 10000Bedeckt (2100)
Wolkig (1800)
 
Sion
481
Di 21.09. 02:50121194 %1023
1024
966
Uml 1 (2)>= 10000Stark bewölkt (2300)
Stark bewölkt (1800)
 
Sion
481
Di 21.09. 02:20121194 %1023
1024
966
Uml 1 (1)>= 10000Stark bewölkt (2300)
Leicht bewölkt (2000)
 
Sion
481
Di 21.09. 01:50121194 %1023
1024
966
Windstill>= 10000Bedeckt (2000) 
Sion
481
Di 21.09. 01:20121194 %1023
1024
966
Windstill>= 10000Stark bewölkt (2000) 
Sion
481
Di 21.09. 00:50121194 %1023
1024
966
Windstill>= 10000Leicht bewölkt (2000) 
Sion
481
Di 21.09. 00:20121194 %1023
1024
966
Windstill>= 10000Bedeckt (2000) 
Sion
481
Mo 20.09. 23:501212100 %1022
1023
965
O 1 (2)>= 10000Stark bewölkt (2400)
Stark bewölkt (2000)
 
Sion
481
Mo 20.09. 23:201212100 %1022
1023
965
ONO 1 (2)>= 10000Stark bewölkt (2400)
Leicht bewölkt (2000)
 
Sion
481
Mo 20.09. 22:501212100 %1022
1023
965
Windstill>= 10000Stark bewölkt (2000) 
Sion
481
Mo 20.09. 22:201212100 %1022
1023
965
Windstill>= 10000Wolkig (2000) 
Sion
481
Mo 20.09. 21:50121194 %1022
1023
965
Windstill>= 10000Stark bewölkt (2000)
Wolkig (1700)
 
Sion
481
Mo 20.09. 21:20121194 %1021
1022
964
Windstill>= 10000Bedeckt (1700) 
Sion
481
Mo 20.09. 20:501212100 %1021
1022
964
OSO 1 (1)>= 10000Stark bewölkt (2000) 
Sion
481
Mo 20.09. 20:201212100 %1021
1022
964
Uml 1 (1)>= 10000Stark bewölkt (1800) 
Sion
481
Mo 20.09. 19:50121194 %1021
1022
964
Windstill>= 10000Stark bewölkt (2400)
Wolkig (910)
Leicht bewölkt (610)
Regen (schwach)
Sion
481
Mo 20.09. 19:20131188 %1020
1020
963
Uml 1 (2)>= 10000Stark bewölkt (2400)
Wolkig (910)
Leicht bewölkt (610)
Regen (schwach)
Sion
481
Mo 20.09. 18:50131188 %1020
1020
963
Uml 1 (2)>= 10000Stark bewölkt (2100)
Wolkig (610)
Leicht bewölkt (300)
Regen (schwach)
Sion
481
Mo 20.09. 18:20131188 %1020
1020
963
Uml 1 (2)>= 10000Stark bewölkt (2100)
Wolkig (610)
Leicht bewölkt (300)
Regen (schwach)
Sion
481
Mo 20.09. 17:50131188 %1020
1020
963
Uml 1 (2)>= 10000Stark bewölkt (2100)
Wolkig (610)
Leicht bewölkt (300)
Regen (schwach)
Sion
481
Mo 20.09. 17:20131188 %1019
1019
962
W 2 (3)
SW - WNW
>= 10000Stark bewölkt (2100)
Wolkig (610)
Leicht bewölkt (300)
Regen (schwach)
Sion
481
Mo 20.09. 16:50131188 %1019
1019
962
SW 2 (3)>= 10000Stark bewölkt (2100)
Wolkig (610)
Leicht bewölkt (300)
Regen (schwach)
Sion
481
Mo 20.09. 16:20131188 %1019
1019
962
WSW 2 (3)
SSW - W
>= 10000Stark bewölkt (2100)
Wolkig (610)
Leicht bewölkt (300)
Regen (schwach)
Sion
481
Mo 20.09. 15:50131188 %1019
1019
962
WSW 2 (3)
SSW - W
>= 10000Stark bewölkt (2100)
Wolkig (610)
Leicht bewölkt (300)
Regen (schwach)
Sion
481
Mo 20.09. 15:20131188 %1019
1019
962
WSW 2 (4)>= 10000Stark bewölkt (2100)
Wolkig (610)
Leicht bewölkt (300)
Regen (schwach)
Sion
481
Mo 20.09. 14:50131188 %1019
1019
962
SW 2 (3)>= 10000Stark bewölkt (2100)
Wolkig (610)
Leicht bewölkt (300)
Regen (schwach)
Sion
481
Mo 20.09. 14:20131188 %1019
1019
962
Uml 1 (1)>= 10000Stark bewölkt (2100)
Wolkig (610)
Leicht bewölkt (300)
Regen (schwach)
Sion
481
Mo 20.09. 13:50131188 %1019
1019
962
Windstill>= 10000Stark bewölkt (2100)
Wolkig (610)
Leicht bewölkt (300)
Regen (schwach)
Sion
481
Mo 20.09. 13:20131188 %1019
1019
962
Uml 1 (1)>= 10000Stark bewölkt (2100)
Wolkig (610)
Leicht bewölkt (300)
Regen (schwach)
Sion
481
Mo 20.09. 12:50131188 %1019
1019
962
Uml 1 (1)>= 10000Stark bewölkt (2100)
Wolkig (610)
Leicht bewölkt (300)
Regen (schwach)
Sion
481
Mo 20.09. 12:20131082 %1019
1019
962
Uml 1 (1)>= 10000Stark bewölkt (2100)
Wolkig (610)
Leicht bewölkt (300)
Regen (schwach)
Sion
481
Mo 20.09. 11:50131188 %1019
1019
962
Windstill>= 10000Stark bewölkt (2100)
Wolkig (610)
Leicht bewölkt (300)
Regen (schwach)
Sion
481
Mo 20.09. 11:20121088 %1019
1020
962
O 2 (3)>= 10000Stark bewölkt (2100)
Wolkig (610)
Leicht bewölkt (300)
Regen (schwach)
Sion
481
Mo 20.09. 10:50121088 %1019
1020
962
Uml 1 (2)>= 10000Stark bewölkt (2100)
Wolkig (610)
Leicht bewölkt (300)
Regen (schwach)
Sion
481
Mo 20.09. 10:20121088 %1019
1020
962
Uml 2 (3)>= 10000Stark bewölkt (2100)
Wolkig (610)
Leicht bewölkt (300)
Regen (schwach)
Sion
481
Mo 20.09. 09:50111094 %1019
1020
962
ONO 2 (4)>= 10000Stark bewölkt (2100)
Wolkig (610)
Leicht bewölkt (300)
Regen (schwach)
Sion
481
Mo 20.09. 09:20111094 %1019
1020
962
ONO 2 (5)>= 10000Stark bewölkt (2100)
Wolkig (610)
Leicht bewölkt (300)
Regen
Sion
481
Mo 20.09. 08:50111094 %1018
1019
961
Uml 1 (2)>= 10000Stark bewölkt (2400)
Wolkig (610)
Leicht bewölkt (300)
Regen
Sion
481
Mo 20.09. 08:20111094 %1019
1020
962
Uml 1 (1)>= 10000Stark bewölkt (2400)
Wolkig (610)
Leicht bewölkt (300)
Regen
Sion
481
Mo 20.09. 07:50111094 %1019
1020
962
O 1 (1)>= 10000Stark bewölkt (2400)
Wolkig (610)
Regen (schwach)
Sion
481
Mo 20.09. 07:20111094 %1019
1020
962
SO 1 (1)>= 10000Stark bewölkt (2400)
Leicht bewölkt (610)
Regen (schwach)
Sion
481
Mo 20.09. 06:5011987 %1019
1020
962
Windstill>= 10000Stark bewölkt (2400)
Leicht bewölkt (610)
Regen (schwach)
Sion
481
Mo 20.09. 06:2011987 %1019
1020
962
Windstill>= 10000 Regen (schwach)
Sion
481
Mo 20.09. 05:5011987 %1019
1020
962
Uml 1 (1)>= 10000Bedeckt (940)Regen (schwach)
Sion
481
Mo 20.09. 05:2011882 %1019
1020
962
Uml 1 (1)>= 10000Stark bewölkt (940) 
Sion
481
Mo 20.09. 04:5011882 %1018
1019
961
Windstill>= 10000Leicht bewölkt (820) 
Sion
481
Mo 20.09. 04:2011882 %1018
1019
961
Windstill>= 10000  
Sion
481
Mo 20.09. 03:5011882 %1018
1019
961
O 2 (3)>= 10000Wolkig (3400)
Leicht bewölkt (820)
 
Sion
481
Mo 20.09. 03:2011882 %1018
1019
961
O 2 (5)>= 10000Wolkig (760) 
Sion
481
Mo 20.09. 02:5011882 %1018
1019
961
O 2 (6)>= 10000Stark bewölkt (700)
Stark bewölkt (580)
 
Sion
481
Mo 20.09. 02:2011882 %1019
1020
962
O 2 (4)>= 10000Stark bewölkt (730) 
Sion
481
Mo 20.09. 01:5011882 %1018
1019
961
ONO 2 (4)>= 10000Wolkig (610) 
Sion
481
Mo 20.09. 01:2011882 %1018
1019
961
ONO 2 (4)>= 10000Wolkig (670) 
Sion
481
Mo 20.09. 00:5011882 %1018
1019
961
O 2 (5)>= 10000Stark bewölkt (670) 
Sion
481
Mo 20.09. 00:2011882 %1018
1019
961
ONO 2 (4)>= 10000Stark bewölkt (670) 
Sion
481
So 19.09. 23:5011882 %1018
1019
961
ONO 2 (5)>= 10000Stark bewölkt (670) 
Sion
481
So 19.09. 23:2011987 %1018
1019
961
ONO 2 (3)>= 10000  
Sion
481
So 19.09. 22:5011882 %1018
1019
961
O 2 (4)>= 10000Stark bewölkt (2400)
Wolkig (730)
 
Sion
481
So 19.09. 22:2011882 %1018
1019
961
O 2 (3)>= 10000Bedeckt (580) 
Sion
481
So 19.09. 21:5011882 %1018
1019
961
Uml 1 (2)>= 10000Leicht bewölkt (700) 
Sion
481
So 19.09. 21:2011776 %1018
1019
961
O 1 (2)>= 10000Leicht bewölkt (760) 
Sion
481
So 19.09. 20:5011776 %1018
1019
961
O 2 (3)>= 10000Stark bewölkt (730) 
Sion
481
So 19.09. 20:2011776 %1017
1018
960
Windstill>= 10000Stark bewölkt (730) 
Sion
481
So 19.09. 19:5011776 %1017
1018
960
O 2 (3)>= 10000Stark bewölkt (3000)
Wolkig (1800)
Wolkig (910)
 
Sion
481
So 19.09. 19:2011776 %1017
1018
960
O 2 (4)>= 10000Stark bewölkt (3000)
Wolkig (1800)
Leicht bewölkt (610)
 
Sion
481
So 19.09. 18:5011776 %1017
1018
960
O 2 (6)>= 10000Stark bewölkt (2700)
Wolkig (1800)
Leicht bewölkt (610)
 
Sion
481
So 19.09. 18:2011776 %1017
1018
960
ONO 3 (7)>= 10000Stark bewölkt (2400)
Wolkig (1800)
Leicht bewölkt (610)
 
Sion
481
So 19.09. 17:5011671 %1017
1018
960
NO 3 (8)>= 10000Stark bewölkt (2400)
Wolkig (1800)
Leicht bewölkt (610)
 
Sion
481
So 19.09. 17:2011776 %1017
1018
960
ONO 3 (8)
NNO - O
>= 10000Stark bewölkt (2400)
Wolkig (1500)
Leicht bewölkt (610)
 

Altimeter: Einstellung am Altimeter (Höhenmesser), die Höhe 0 muss auf diesen Luftdruckwert zeigen, damit das Gerät die Stationshöhe richtig anzeigt.

NN: Luftdruck reduziert auf "Normal Null", auf Meereshöhe, dieser von der Temperatur abhängige Wert wird bisweilen unkorrekt einfach als "Luftdruck" bezeichnet. Eigentlich nur eine fiktive Größe, die es erlaubt, Stationen auf unterschiedlichen Höhen miteinander zu vergleichen.

Station: Realer Luftdruck an der Station.